Soleil Weather Down

Nearby METAR Reports

 

KCNI - Canton/Cherokee, Georgia, USA
Distance from station: ENE 6mi, 10km
Updated: Mon, 18-Feb-2019 6:55pm EST
Clear
Clear
 Wind from WNW
Wind: WNW 8 mph , 13 km/h
Temperature: 46°F , 8°C
Wind Chill: 42°F , 6°C
Dew Point: 32°F , 0°C
Humidity: 57%
Barometer: 30.26 inHg , 1024.7 hPa
Clouds: Clear
Visibility: 10 miles , 16 km
2019/02/18 23:55 KCNI 182355Z AUTO 30007KT 10SM CLR 08/00 A3026 RMK AO2
KRYY - Marietta Mccolum, Georgia, USA
Distance from station: SSW 18mi, 29km
Updated: Mon, 18-Feb-2019 6:48pm EST
Clear
Clear
 Wind from WNW
Wind: WNW 7 mph , 11 km/h
Temperature: 46°F , 8°C
Wind Chill: 42°F , 6°C
Dew Point: 36°F , 2°C
Humidity: 66%
Barometer: 30.28 inHg , 1025.4 hPa
Clouds: Clear
Visibility: 10 miles , 16 km
2019/02/18 23:48 KRYY 182348Z 30006KT 10SM CLR 08/02 A3028 RMK AO2 SLP974 T00830017 10133 20083 52015
KVPC - Cartersville, Georgia, USA
Distance from station: WSW 22mi, 35km
Updated: Mon, 18-Feb-2019 6:53pm EST
Clear
Clear
 Wind from calm
Wind: Calm
Temperature: 46°F , 8°C
Dew Point: 36°F , 2°C
Humidity: 66%
Barometer: 30.29 inHg , 1025.7 hPa
Clouds: Clear
Visibility: 10 miles , 16 km
2019/02/18 23:53 KVPC 182353Z AUTO 00000KT 10SM CLR 08/02 A3029 RMK AO2 SLP253 T00830022 10133 20078 53010
 
KMGE - Dobbins Afb/Mari, Georgia, USA
Distance from station: S 24mi, 39km
Updated: Mon, 18-Feb-2019 6:56pm EST
Mostly cloudy
Mostly cloudy
 Wind from NW
Wind: NW 7 mph , 11 km/h
Temperature: 48°F , 9°C
Wind Chill: 45°F , 7°C
Dew Point: 32°F , 0°C
Humidity: 54%
Barometer: 30.27 inHg , 1025.1 hPa
Clouds: Mostly cloudy
Visibility: 10 miles , 16 km
Cloud details: Mostly cloudy 14000 ft
Mostly cloudy 25000 ft
2019/02/18 23:56 KMGE 182356Z 32006KT 10SM BKN140 BKN250 09/00 A3027 RMK AO2A SLP254 SLP ESTMD 52019
KPDK - Peachtree/Dekalb, Georgia, USA
Distance from station: SSE 29mi, 47km
Updated: Mon, 18-Feb-2019 6:53pm EST
Clear
Clear
 Wind from NW
Wind: NW 8 mph , 13 km/h
Temperature: 46°F , 8°C
Wind Chill: 42°F , 6°C
Dew Point: 32°F , 0°C
Humidity: 57%
Barometer: 30.26 inHg , 1024.7 hPa
Clouds: Clear
Visibility: 10 miles , 16 km
2019/02/18 23:53 KPDK 182353Z 32007KT 10SM CLR 08/00 A3026 RMK AO2 SLP253 T00830000 10150 20083 53021
KFTY - Atlanta/Fulton, Georgia, USA
Distance from station: S 34mi, 54km
Updated: Mon, 18-Feb-2019 6:53pm EST
Clear
Clear
 Wind from NNW
Wind: NNW 5 mph , 7 km/h
Temperature: 48°F , 9°C
Wind Chill: 46°F , 8°C
Dew Point: 34°F , 1°C
Humidity: 58%
Barometer: 30.28 inHg , 1025.4 hPa
Clouds: Clear
Visibility: 10 miles , 16 km
2019/02/18 23:53 KFTY 182353Z 34004KT 10SM CLR 09/01 A3028 RMK AO2 SLP254 T00940006 10156 20094 53024
 
KPUJ - Atlanta/Paulding, Georgia, USA
Distance from station: SW 34mi, 55km
Updated: Mon, 18-Feb-2019 6:55pm EST
Clear
Clear
 Wind from NW
Wind: NW 3 mph , 6 km/h
Temperature: 45°F , 7°C
Dew Point: 32°F , 0°C
Humidity: 61%
Barometer: 30.27 inHg , 1025.1 hPa
Clouds: Clear
Visibility: 10 miles , 16 km
2019/02/18 23:55 KPUJ 182355Z AUTO 32003KT 10SM CLR 07/00 A3027 RMK AO2
KDNN - Dalton, Georgia, USA
Distance from station: NW 37mi, 59km
Updated: Mon, 18-Feb-2019 6:55pm EST
Clear
Clear
 Wind from NNW
Wind: NNW 8 mph , 13 km/h
Temperature: 45°F , 7°C
Wind Chill: 41°F , 5°C
Dew Point: 30°F , -1°C
Humidity: 57%
Barometer: 30.32 inHg , 1026.8 hPa
Clouds: Clear
Visibility: 10 miles , 16 km
2019/02/18 23:55 KDNN 182355Z AUTO 34007KT 10SM CLR 07/M01 A3032 RMK AO2
KLZU - Lawrenceville, Georgia, USA
Distance from station: ESE 37mi, 59km
Updated: Mon, 18-Feb-2019 6:56pm EST
Clear
Clear
 Wind from W
Wind: W 8 mph , 13 km/h
Temperature: 50°F , 10°C
Wind Chill: 47°F , 8°C
Dew Point: 34°F , 1°C
Humidity: 54%
Barometer: 30.26 inHg , 1024.7 hPa
Clouds: Clear
Visibility: 10 miles , 16 km
2019/02/18 23:56 KLZU 182356Z 26007KT 10SM CLR 10/01 A3026 RMK AO2 SLP259 T01000011 10161 20100 53023
 
KRMG - Rome, Georgia, USA
Distance from station: W 38mi, 61km
Updated: Mon, 18-Feb-2019 6:53pm EST
Clear
Clear
 Wind from calm
Wind: Calm
Temperature: 45°F , 7°C
Dew Point: 37°F , 3°C
Humidity: 76%
Barometer: 30.29 inHg , 1025.7 hPa
Clouds: Clear
Visibility: 10 miles , 16 km
2019/02/18 23:53 KRMG 182353Z AUTO 00000KT 10SM CLR 07/03 A3029 RMK AO2 SLP255 T00670028 10106 20067 53015
KGVL - Gainesville, Georgia, USA
Distance from station: E 39mi, 62km
Updated: Mon, 18-Feb-2019 6:53pm EST
Clear
Clear
 Wind from WNW
Wind: WNW 10 mph , 17 km/h
Temperature: 50°F , 10°C
Wind Chill: 46°F , 8°C
Dew Point: 32°F , 0°C
Humidity: 50%
Barometer: 30.24 inHg , 1024 hPa
Clouds: Clear
Visibility: 10 miles , 16 km
2019/02/18 23:53 KGVL 182353Z AUTO 29009KT 10SM CLR 10/00 A3024 RMK AO2 SLP238 T01000000 10161 20100 53015
KATL - Atlanta, Georgia, USA
Distance from station: S 44mi, 71km
Updated: Mon, 18-Feb-2019 6:52pm EST
Mostly cloudy
Mostly cloudy
 Wind from NW
Wind: NW 10 mph , 17 km/h
Temperature: 52°F , 11°C
Dew Point: 28°F , -2°C
Humidity: 41%
Barometer: 30.26 inHg , 1024.7 hPa
Clouds: Mostly cloudy
Visibility: 10 miles , 16 km
Cloud details: Partly cloudy 12000 ft
Mostly cloudy 15000 ft
Mostly cloudy 25000 ft
2019/02/18 23:52 KATL 182352Z 32009KT 10SM SCT120 BKN150 BKN250 11/M02 A3026 RMK AO2 SLP250 VIRGA NE-OHD-SW T01061017 10156 20106 53023